Aviation Digital Data Service (ADDS)

Output produced by TAFs form (0652 UTC 22 July 2017)
found at http://aviationweather.gov/adds/tafs/
 
KEGE 220539Z 2206/2306 08003KT P6SM -SHRA FEW060 OVC090 
     FM220800 00000KT P6SM BKN070 
     FM222100 04006KT P6SM BKN130 
     FM222300 23006KT P6SM SCT140 
     FM230000 34004KT P6SM SCT140 AMD LTD TO CLD VIS AND WIND TIL 221300